Latest Weather Observations for Tewantin

IDQ60901

Issued at 11:41 am EST Wednesday 1 July 2015 (issued every 10 minutes, with the page automatically refreshed every 10 minutes)

About weather observations | Map of Brisbane area stations | Latest observations for Brisbane area | Other Formats
Station Details ID: 040908 Name: TEWANTIN RSL PARK Lat: -26.39 Lon: 153.04 Height: 6.4 m
Data from the previous 72 hours. | See also: Recent months at Tewantin
Date/Time
EST
Tmp

°C
App
Tmp
°C
Dew
Point
°C
Rel
Hum
%
Delta-T

°C
Wind Press
QNH
hPa
Press
MSL
hPa
Rain
since
9 am
mm
Dir
 
Spd
km/h
Gust
km/h
Spd
kts
Gust
kts
01/11:30am 22.6 22.6 13.7 57 5.1 NNE 6 9 3 5 1022.9 1022.9 0.0
01/11:00am 22.2 22.9 13.5 57 5.0 ENE 2 6 1 3 1023.5 1023.5 0.0
01/10:30am 21.4 20.9 12.8 58 4.9 SW 7 9 4 5 1023.9 1023.9 0.0
01/10:00am 21.0 21.5 13.9 64 4.1 SSW 4 6 2 3 1024.1 1024.1 0.0
01/09:30am 20.1 20.3 14.2 69 3.4 SSW 6 7 3 4 1024.2 1024.2 0.0
01/09:00am 19.3 20.9 15.0 76 2.5 CALM 0 0 0 0 1024.3 1024.3 0.0
01/08:30am 18.0 19.4 14.3 79 2.1 CALM 0 0 0 0 1024.4 1024.4 0.0
01/08:00am 16.1 17.8 15.3 95 0.5 CALM 0 0 0 0 1024.3 1024.3 0.0
01/07:30am 15.3 16.9 14.8 97 0.3 CALM 0 0 0 0 1023.9 1023.9 0.0
01/07:00am 14.5 15.8 14.2 98 0.2 CALM 0 0 0 0 1023.5 1023.5 0.0
01/06:30am 14.7 15.4 14.5 99 0.1 SSW 4 7 2 4 1023.4 1023.4 0.0
01/06:00am 14.7 16.1 14.5 99 0.1 CALM 0 0 0 0 1023.1 1023.1 0.0
01/05:30am 14.7 15.7 14.2 97 0.3 WSW 2 6 1 3 1023.1 1023.1 0.0
01/05:00am 14.9 16.4 14.6 98 0.2 CALM 0 4 0 2 1023.1 1023.1 0.0
01/04:30am 14.8 16.3 14.6 99 0.1 CALM 0 0 0 0 1023.2 1023.2 0.0
01/04:00am 14.9 16.3 14.4 97 0.3 CALM 0 0 0 0 1023.1 1023.1 0.0
01/03:30am 15.3 17.0 15.1 99 0.1 CALM 0 0 0 0 1023.0 1023.0 0.0
01/03:00am 15.4 17.1 15.2 99 0.1 CALM 0 0 0 0 1023.0 1023.0 0.0
01/02:30am 15.3 16.9 14.8 97 0.3 CALM 0 0 0 0 1023.3 1023.3 0.0
01/02:00am 15.4 17.0 14.9 97 0.3 CALM 0 0 0 0 1023.6 1023.6 0.0
01/01:30am 15.6 17.2 14.8 95 0.5 CALM 0 0 0 0 1023.9 1023.9 0.0
01/01:00am 15.5 17.1 14.9 96 0.3 CALM 0 0 0 0 1024.1 1024.1 0.0
01/12:30am 15.9 17.5 14.8 93 0.6 CALM 0 0 0 0 1024.5 1024.5 0.0
 
Date/Time
EST
Tmp

°C
App
Tmp
°C
Dew
Point
°C
Rel
Hum
%
Delta-T

°C
Wind Press
QNH
hPa
Press
MSL
hPa
Rain
since
9 am
mm
Dir
 
Spd
km/h
Gust
km/h
Spd
kts
Gust
kts
30/11:30pm 16.8 17.8 14.4 86 1.4 SW 2 7 1 4 1024.9 1024.9 0.0
30/11:00pm 16.8 17.1 15.0 89 1.0 SSW 7 9 4 5 1025.0 1025.0 0.0
30/10:30pm 16.8 17.7 15.0 89 1.0 S 4 7 2 4 1025.2 1025.2 0.0
30/10:00pm 16.9 18.6 15.1 89 1.0 CALM 0 6 0 3 1025.3 1025.3 0.0
30/09:30pm 16.8 18.5 15.2 90 0.9 CALM 0 4 0 2 1025.4 1025.4 0.0
30/09:00pm 17.0 17.7 15.5 91 0.9 S 6 9 3 5 1025.3 1025.3 0.0
30/08:30pm 16.9 18.7 15.4 91 0.9 CALM 0 0 0 0 1025.1 1025.1 0.0
30/08:00pm 16.9 18.7 15.6 92 0.8 CALM 0 0 0 0 1024.8 1024.8 0.0
30/07:30pm 17.3 19.1 15.5 89 1.1 CALM 0 0 0 0 1024.8 1024.8 0.0
30/07:00pm 17.6 19.4 15.6 88 1.2 CALM 0 0 0 0 1024.4 1024.4 0.0
30/06:30pm 17.8 18.8 15.4 86 1.4 SSW 4 7 2 4 1024.2 1024.2 0.0
30/06:00pm 18.3 20.0 15.2 82 1.8 CALM 0 0 0 0 1024.1 1024.1 0.0
30/05:30pm 18.6 20.4 15.5 82 1.8 CALM 0 0 0 0 1024.1 1024.1 0.0
30/05:00pm 19.1 19.4 14.4 74 2.7 SE 6 7 3 4 1024.0 1024.0 0.0
30/04:30pm 19.9 19.8 13.8 68 3.5 SE 7 11 4 6 1024.1 1024.1 0.0
30/04:00pm 20.2 19.6 13.6 66 3.8 SE 9 13 5 7 1023.9 1023.9 0.0
30/03:30pm 20.6 20.4 13.6 64 4.0 SE 7 11 4 6 1024.0 1024.0 0.0
30/03:00pm 20.8 20.2 13.5 63 4.2 SE 9 15 5 8 1023.9 1023.9 0.0
30/02:30pm 20.8 19.2 12.8 60 4.5 ESE 13 17 7 9 1023.8 1023.8 0.0
30/02:00pm 21.3 20.5 13.0 59 4.7 ESE 9 13 5 7 1023.8 1023.8 0.0
30/01:30pm 21.4 20.8 13.6 61 4.5 ESE 9 17 5 9 1024.1 1024.1 0.0
30/01:00pm 21.5 20.7 12.9 58 4.9 SE 9 15 5 8 1024.5 1024.5 0.0
30/12:30pm 21.5 21.0 13.7 61 4.5 SSE 9 13 5 7 1025.1 1025.1 0.0
30/12:00pm 21.2 19.5 12.6 58 4.8 SE 13 20 7 11 1025.8 1025.8 0.0
30/11:30am 21.5 20.8 13.2 59 4.8 SSE 9 17 5 9 1026.2 1026.2 0.0
30/11:00am 21.1 20.5 14.7 67 3.7 SSE 11 15 6 8 1026.2 1026.2 0.0
30/10:30am 20.9 20.7 14.8 68 3.6 S 9 15 5 8 1026.7 1026.7 0.0
30/10:00am 20.3 19.4 14.9 71 3.2 S 13 19 7 10 1027.2 1027.2 0.0
30/09:30am 19.4 18.4 14.6 74 2.8 S 13 22 7 12 1027.2 1027.2 0.0
30/09:00am 18.6 18.1 14.9 79 2.1 S 11 19 6 10 1027.3 1027.3 9.2
30/08:30am 17.7 17.2 14.8 83 1.7 S 11 19 6 10 1027.4 1027.4 9.2
30/08:00am 16.7 16.3 15.2 91 0.9 SSW 11 17 6 9 1027.1 1027.1 9.2
30/07:30am 15.4 16.7 15.2 99 0.1 SSW 2 9 1 5 1027.0 1027.0 9.2
30/07:00am 14.2 14.3 14.0 99 0.1 SSW 6 7 3 4 1026.7 1026.7 9.2
30/06:30am 14.1 14.6 13.9 99 0.1 SE 4 7 2 4 1026.3 1026.3 9.2
30/06:00am 14.0 14.8 13.8 99 0.1 S 2 7 1 4 1026.5 1026.5 9.2
30/05:30am 14.3 14.5 14.1 99 0.1 S 6 7 3 4 1026.4 1026.4 9.2
30/05:00am 14.6 14.9 14.4 99 0.1 S 6 9 3 5 1026.5 1026.5 9.2
30/04:30am 14.9 15.3 14.7 99 0.1 S 6 9 3 5 1026.6 1026.6 9.2
30/04:00am 15.4 16.0 15.2 99 0.1 SSW 6 13 3 7 1027.0 1027.0 9.2
30/03:30am 15.6 16.0 15.4 99 0.1 SSW 7 13 4 7 1027.0 1027.0 9.2
30/03:00am 15.9 15.7 15.7 99 0.1 SSW 11 17 6 9 1027.0 1027.0 9.2
30/02:30am 15.8 15.9 15.6 99 0.1 SSW 9 13 5 7 1027.2 1027.2 9.2
30/02:00am 15.9 16.1 15.7 99 0.1 SSW 9 15 5 8 1027.2 1027.2 9.0
30/01:30am 15.9 15.7 15.7 99 0.1 S 11 17 6 9 1027.2 1027.2 9.0
30/01:00am 16.0 15.8 15.8 99 0.1 SSW 11 19 6 10 1027.4 1027.4 9.0
30/12:30am 16.1 16.0 15.9 99 0.1 SSW 11 19 6 10 1027.5 1027.5 9.0
30/12:00am 16.1 16.0 15.9 99 0.1 SSW 11 17 6 9 1027.6 1027.6 8.8
 
Date/Time
EST
Tmp

°C
App
Tmp
°C
Dew
Point
°C
Rel
Hum
%
Delta-T

°C
Wind Press
QNH
hPa
Press
MSL
hPa
Rain
since
9 am
mm
Dir
 
Spd
km/h
Gust
km/h
Spd
kts
Gust
kts
29/11:30pm 16.1 16.7 15.9 99 0.1 SSW 7 13 4 7 1027.7 1027.7 8.4
29/11:00pm 16.1 16.4 15.9 99 0.1 SSW 9 13 5 7 1027.9 1027.9 8.4
29/10:30pm 16.1 16.0 15.9 99 0.1 SSW 11 17 6 9 1028.4 1028.4 8.0
29/10:00pm 16.1 16.7 15.9 99 0.1 SSW 7 13 4 7 1028.5 1028.5 7.8
29/09:30pm 16.1 16.9 15.9 99 0.1 SSW 6 11 3 6 1028.5 1028.5 7.8
29/09:00pm 16.2 17.1 16.0 99 0.1 WSW 6 9 3 5 1028.5 1028.5 7.6
29/08:30pm 16.2 16.1 16.0 99 0.1 ESE 11 20 6 11 1028.8 1028.8 7.4
29/08:00pm 16.4 16.0 16.2 99 0.1 S 13 20 7 11 1028.5 1028.5 5.4
29/07:30pm 16.4 17.3 16.2 99 0.1 SSE 6 9 3 5 1028.3 1028.3 4.2
29/07:00pm 16.3 16.6 16.0 98 0.2 S 9 13 5 7 1028.0 1028.0 4.2
29/06:30pm 16.6 17.3 16.0 96 0.4 SSW 7 15 4 8 1027.8 1027.8 4.2
29/06:00pm 16.8 17.5 16.2 96 0.4 SSW 7 13 4 7 1027.3 1027.3 4.2
29/05:30pm 17.2 19.2 15.9 92 0.8 CALM 0 6 0 3 1027.1 1027.1 3.6
29/05:00pm 17.4 18.1 15.7 90 1.0 SSE 6 9 3 5 1026.8 1026.8 3.6
29/04:30pm 17.5 17.5 16.2 92 0.8 SSW 11 17 6 9 1026.6 1026.6 3.6
29/04:00pm 17.8 17.6 16.7 93 0.7 S 13 20 7 11 1026.8 1026.8 3.6
29/03:30pm 17.6 17.7 16.5 93 0.7 SSE 11 17 6 9 1027.1 1027.1 3.2
29/03:00pm 18.9 18.6 15.4 80 2.0 SSE 11 20 6 11 1027.3 1027.3 1.4
29/02:30pm 19.2 18.6 15.7 80 2.1 S 13 19 7 10 1027.3 1027.3 1.4
29/02:00pm 20.4 19.9 16.0 76 2.6 SSE 13 22 7 12 1027.6 1027.6 1.4
29/01:30pm 19.4 18.7 15.5 78 2.3 SSE 13 20 7 11 1028.1 1028.1 1.4
29/01:00pm 19.2 18.4 15.1 77 2.4 SE 13 28 7 15 1028.3 1028.3 1.4
29/12:30pm 19.5 19.3 16.7 84 1.7 S 13 20 7 11 1028.4 1028.4 1.4
29/12:00pm 19.8 19.7 16.1 79 2.2 SSE 11 22 6 12 1028.5 1028.5 1.4
29/11:30am 19.1 20.5 17.9 93 0.7 SSE 7 11 4 6 1028.9 1028.9 1.4
29/11:00am 18.9 21.4 18.1 95 0.5 SW 2 13 1 7 1029.6 1029.6 1.2
29/10:30am 17.7 18.0 16.9 95 0.5 S 11 19 6 10 1029.9 1029.9 0.8
29/10:00am 17.9 18.7 17.4 97 0.3 S 9 13 5 7 1030.0 1030.0 0.4
29/09:30am 17.4 18.0 16.8 96 0.4 SSW 9 19 5 10 1030.1 1030.1 0.4
29/09:00am 17.2 16.9 16.4 95 0.5 SSW 13 20 7 11 1030.4 1030.4 4.0
29/08:30am 18.2 17.5 16.4 89 1.1 SSW 15 24 8 13 1029.9 1029.9 4.0
29/08:00am 17.4 16.9 16.8 96 0.4 S 15 24 8 13 1029.5 1029.5 4.0
29/07:30am 16.5 16.5 16.3 99 0.1 SSW 11 15 6 8 1029.3 1029.3 4.0
29/07:00am 15.9 15.3 15.7 99 0.1 SSW 13 19 7 10 1029.0 1029.0 4.0
29/06:30am 15.7 15.8 15.5 99 0.1 S 9 13 5 7 1028.8 1028.8 4.0
29/06:00am 15.7 15.8 15.5 99 0.1 SSW 9 13 5 7 1028.7 1028.7 4.0
29/05:30am 15.9 15.7 15.7 99 0.1 S 11 15 6 8 1028.3 1028.3 4.0
29/05:00am 15.9 15.7 15.7 99 0.1 S 11 17 6 9 1027.9 1027.9 4.0
29/04:30am 16.0 16.8 15.8 99 0.1 S 6 11 3 6 1028.0 1028.0 3.8
29/04:00am 16.0 16.2 15.8 99 0.1 S 9 13 5 7 1027.9 1027.9 3.8
29/03:30am 16.0 16.2 15.8 99 0.1 S 9 15 5 8 1028.0 1028.0 3.8
29/03:00am 15.9 15.3 15.7 99 0.1 S 13 19 7 10 1028.1 1028.1 3.8
29/02:30am 15.9 15.7 15.7 99 0.1 S 11 15 6 8 1028.2 1028.2 3.8
29/02:00am 16.0 16.2 15.8 99 0.1 S 9 15 5 8 1028.5 1028.5 3.6
29/01:30am 16.2 16.1 16.0 99 0.1 SSW 11 19 6 10 1028.6 1028.6 3.6
29/01:00am 16.3 17.0 16.1 99 0.1 SSW 7 15 4 8 1028.7 1028.7 3.6
29/12:30am 16.3 15.9 16.1 99 0.1 S 13 19 7 10 1028.9 1028.9 2.0
29/12:00am 16.2 16.5 16.0 99 0.1 S 9 13 5 7 1029.0 1029.0 2.0
 
Date/Time
EST
Tmp

°C
App
Tmp
°C
Dew
Point
°C
Rel
Hum
%
Delta-T

°C
Wind Press
QNH
hPa
Press
MSL
hPa
Rain
since
9 am
mm
Dir
 
Spd
km/h
Gust
km/h
Spd
kts
Gust
kts
28/11:30pm 16.2 16.5 16.0 99 0.1 SSW 9 15 5 8 1029.3 1029.3 2.0
28/11:00pm 16.3 16.2 16.1 99 0.1 S 11 17 6 9 1029.5 1029.5 2.0
28/10:30pm 16.2 16.9 16.0 99 0.1 SE 7 9 4 5 1029.7 1029.7 2.0
28/10:00pm 16.4 17.3 16.2 99 0.1 S 6 9 3 5 1029.6 1029.6 2.0
28/09:30pm 17.0 18.2 16.8 99 0.1 SSW 6 13 3 7 1029.6 1029.6 1.6
28/09:00pm 17.0 17.6 16.8 99 0.1 S 9 13 5 7 1029.5 1029.5 1.2
28/08:30pm 17.0 18.0 16.8 99 0.1 S 7 11 4 6 1029.5 1029.5 1.2
28/08:00pm 17.4 18.1 17.1 98 0.2 SSW 9 11 5 6 1029.6 1029.6 1.2
28/07:30pm 17.5 18.2 17.0 97 0.3 SSW 9 13 5 7 1029.5 1029.5 1.2
28/07:00pm 17.8 19.1 17.2 96 0.4 SSW 6 9 3 5 1029.1 1029.1 1.2
28/06:30pm 18.0 19.4 17.4 96 0.4 SSW 6 11 3 6 1028.9 1028.9 1.2
28/06:00pm 18.3 19.0 17.0 92 0.8 SSW 9 17 5 9 1028.6 1028.6 1.2
28/05:30pm 18.1 18.1 15.2 83 1.7 ENE 9 15 5 8 1028.2 1028.2 1.2
28/05:00pm 18.1 19.8 16.1 88 1.2 SE 2 9 1 5 1028.2 1028.2 1.2
28/04:30pm 18.3 19.7 16.3 88 1.2 NE 4 9 2 5 1027.9 1027.9 1.2
28/04:00pm 20.3 21.7 16.3 78 2.4 ENE 4 15 2 8 1027.7 1027.7 0.2
28/03:30pm 20.7 20.6 15.9 74 2.9 SE 11 15 6 8 1027.6 1027.6 0.2
28/03:00pm 21.1 21.0 15.9 72 3.1 SSE 11 20 6 11 1027.4 1027.4 0.2
28/02:30pm 21.5 21.3 15.6 69 3.5 SE 11 19 6 10 1027.2 1027.2 0.2
28/02:00pm 21.7 21.4 16.4 72 3.2 SE 13 20 7 11 1027.4 1027.4 0.2
28/01:30pm 22.0 21.7 16.5 71 3.3 SE 13 22 7 12 1027.4 1027.4 0.2
28/01:00pm 21.6 20.6 15.7 69 3.5 SE 15 24 8 13 1027.5 1027.5 0.2
28/12:30pm 21.8 21.3 15.9 69 3.5 SE 13 20 7 11 1027.8 1027.8 0.2
28/12:00pm 21.7 21.0 15.5 68 3.7 SSE 13 20 7 11 1028.2 1028.2 0.2

Latest Capital City Observations: Canberra | Sydney | Melbourne | Brisbane | Adelaide | Perth | Hobart | Darwin

Other Formats:

Comma delimited format used in spreadsheet applications
http://www.bom.gov.au/fwo/IDQ60901/IDQ60901.94570.axf

JavaScript Object Notation format (JSON) in row-major order
http://www.bom.gov.au/fwo/IDQ60901/IDQ60901.94570.json